createdAt,value
2022-10-01T00:01:18.580Z,100780.31
2022-10-01T00:03:47.878Z,100777.56
2022-10-01T00:06:18.693Z,100763.31
2022-10-01T00:08:48.844Z,100757.38
2022-10-01T00:11:22.204Z,100757.03
2022-10-01T00:13:55.276Z,100763.75
2022-10-01T00:16:27.366Z,100761.91
2022-10-01T00:18:55.178Z,100762.97
2022-10-01T00:21:25.215Z,100759.31
2022-10-01T00:24:00.797Z,100755.44
2022-10-01T00:26:30.857Z,100754.19
2022-10-01T00:29:00.360Z,100753.03
2022-10-01T00:31:28.538Z,100740.03
2022-10-01T00:33:58.335Z,100741.06
2022-10-01T00:36:27.296Z,100748.06
2022-10-01T00:39:00.473Z,100743.19
2022-10-01T00:41:32.913Z,100745.22
2022-10-01T00:44:03.887Z,100753.19
2022-10-01T00:46:45.170Z,100762.69
2022-10-01T00:49:24.337Z,100752.88
2022-10-01T00:51:57.301Z,100756.94
2022-10-01T00:54:49.344Z,100757.72
2022-10-01T00:57:21.859Z,100753.66
2022-10-01T00:59:50.454Z,100750.13
2022-10-01T01:02:17.808Z,100759.13
2022-10-01T01:04:45.151Z,100751.59
2022-10-01T01:07:12.995Z,100770.78
2022-10-01T01:09:47.084Z,100771.00
2022-10-01T01:12:52.788Z,100773.38
2022-10-01T01:15:39.032Z,100779.84
2022-10-01T01:18:40.282Z,100777.72
2022-10-01T01:21:19.704Z,100775.34
2022-10-01T01:24:17.902Z,100773.75
2022-10-01T01:26:57.038Z,100781.84
2022-10-01T01:29:32.551Z,100787.03
2022-10-01T01:32:09.456Z,100791.91
2022-10-01T01:34:44.005Z,100799.47
2022-10-01T01:37:17.569Z,100789.78
2022-10-01T01:39:50.994Z,100794.81
2022-10-01T01:42:24.720Z,100792.31
2022-10-01T01:44:58.026Z,100787.44
2022-10-01T01:47:32.938Z,100783.34
2022-10-01T01:50:02.926Z,100787.00
2022-10-01T01:52:30.579Z,100792.69
2022-10-01T01:54:58.275Z,100788.59
2022-10-01T01:57:28.712Z,100790.34
2022-10-01T01:59:56.011Z,100785.09
2022-10-01T02:02:33.201Z,100788.16
2022-10-01T02:05:05.011Z,100781.88
2022-10-01T02:07:55.970Z,100781.44
2022-10-01T02:10:26.174Z,100792.28
2022-10-01T02:13:01.630Z,100782.91
2022-10-01T02:15:41.830Z,100777.44
2022-10-01T02:18:28.253Z,100779.97
2022-10-01T02:21:05.560Z,100781.00
2022-10-01T02:23:40.251Z,100775.53
2022-10-01T02:26:14.124Z,100782.25
2022-10-01T02:28:42.529Z,100784.09
2022-10-01T02:31:12.793Z,100788.84
2022-10-01T02:33:42.100Z,100777.09
2022-10-01T02:36:11.756Z,100783.53
2022-10-01T02:38:42.127Z,100781.59
2022-10-01T02:41:12.935Z,100770.63
2022-10-01T02:43:51.708Z,100767.91
2022-10-01T02:46:36.618Z,100767.00
2022-10-01T02:49:04.845Z,100769.63
2022-10-01T02:51:43.803Z,100770.31
2022-10-01T02:54:19.931Z,100761.75
2022-10-01T02:57:05.653Z,100770.31
2022-10-01T02:59:32.908Z,100769.06
2022-10-01T03:02:00.410Z,100761.53
2022-10-01T03:04:30.963Z,100776.47
2022-10-01T03:07:06.121Z,100777.16
2022-10-01T03:09:34.980Z,100786.00
2022-10-01T03:12:02.307Z,100774.63
2022-10-01T03:14:29.686Z,100782.50
2022-10-01T03:16:56.970Z,100782.38
2022-10-01T03:19:24.263Z,100790.16
2022-10-01T03:21:51.578Z,100803.59
2022-10-01T03:24:19.344Z,100804.06
2022-10-01T03:26:46.602Z,100797.34
2022-10-01T03:29:14.736Z,100801.31
2022-10-01T03:31:42.144Z,100793.81
2022-10-01T03:34:09.511Z,100790.03
2022-10-01T03:36:37.502Z,100788.63
2022-10-01T03:39:04.826Z,100803.56
2022-10-01T03:41:32.392Z,100795.78
2022-10-01T03:44:00.552Z,100801.94
2022-10-01T03:46:28.121Z,100797.53
2022-10-01T03:48:57.712Z,100796.38
2022-10-01T03:51:25.248Z,100793.63
2022-10-01T03:53:53.791Z,100797.59
2022-10-01T03:56:21.107Z,100805.13
2022-10-01T03:58:48.445Z,100800.91
2022-10-01T04:01:15.794Z,100793.19
2022-10-01T04:03:43.902Z,100796.28
2022-10-01T04:06:11.653Z,100806.09
2022-10-01T04:08:39.519Z,100803.00
2022-10-01T04:11:07.177Z,100783.53
2022-10-01T04:13:34.907Z,100804.06
2022-10-01T04:16:04.044Z,100805.28
2022-10-01T04:18:31.948Z,100803.34
2022-10-01T04:20:59.652Z,100806.88
2022-10-01T04:23:27.289Z,100805.41
2022-10-01T04:25:54.893Z,100805.41
2022-10-01T04:28:22.230Z,100811.25
2022-10-01T04:31:09.709Z,100807.00
2022-10-01T04:33:36.994Z,100811.78
2022-10-01T04:36:04.314Z,100814.16
2022-10-01T04:38:31.651Z,100803.78
2022-10-01T04:40:59.030Z,100794.44
2022-10-01T04:43:26.402Z,100794.44
2022-10-01T04:45:53.705Z,100797.19
2022-10-01T04:48:21.497Z,100791.03
2022-10-01T04:50:48.806Z,100792.97
2022-10-01T04:53:16.101Z,100792.53
2022-10-01T04:55:43.747Z,100789.56
2022-10-01T04:58:11.022Z,100777.81
2022-10-01T05:00:38.353Z,100780.91
2022-10-01T05:03:05.695Z,100782.47
2022-10-01T05:05:34.976Z,100786.81
2022-10-01T05:08:04.659Z,100787.94
2022-10-01T05:10:32.291Z,100787.38
2022-10-01T05:13:02.155Z,100792.94
2022-10-01T05:15:30.389Z,100801.91
2022-10-01T05:17:57.678Z,100803.22
2022-10-01T05:20:27.067Z,100817.41
2022-10-01T05:22:56.382Z,100804.34
2022-10-01T05:25:23.862Z,100798.63
2022-10-01T05:27:51.190Z,100808.97
2022-10-01T05:30:24.173Z,100809.63
2022-10-01T05:32:57.966Z,100796.16
2022-10-01T05:35:25.540Z,100800.72
2022-10-01T05:37:54.370Z,100817.84
2022-10-01T05:40:21.708Z,100817.63
2022-10-01T05:42:49.063Z,100826.31
2022-10-01T05:45:21.013Z,100827.91
2022-10-01T05:47:49.761Z,100826.63
2022-10-01T05:50:17.067Z,100826.16
2022-10-01T05:52:52.992Z,100842.63
2022-10-01T05:55:21.011Z,100843.38
2022-10-01T05:58:01.258Z,100846.69
2022-10-01T06:00:30.236Z,100838.72
2022-10-01T06:02:58.831Z,100845.75
2022-10-01T06:05:27.949Z,100850.34
2022-10-01T06:07:55.378Z,100853.56
2022-10-01T06:10:26.431Z,100856.63
2022-10-01T06:12:58.840Z,100858.97
2022-10-01T06:15:26.092Z,100871.47
2022-10-01T06:17:53.375Z,100878.31
2022-10-01T06:20:21.006Z,100879.94
2022-10-01T06:22:56.351Z,100885.97
2022-10-01T06:25:24.705Z,100876.16
2022-10-01T06:28:00.067Z,100888.03
2022-10-01T06:30:29.553Z,100881.53
2022-10-01T06:33:02.741Z,100891.38
2022-10-01T06:35:33.907Z,100894.72
2022-10-01T06:38:06.121Z,100904.50
2022-10-01T06:40:33.425Z,100898.25
2022-10-01T06:43:00.717Z,100900.50
2022-10-01T06:45:30.194Z,100905.91
2022-10-01T06:48:02.580Z,100901.06
2022-10-01T06:50:34.352Z,100912.09
2022-10-01T06:53:04.570Z,100906.81
2022-10-01T06:55:34.113Z,100900.16
2022-10-01T06:58:07.785Z,100908.66
2022-10-01T07:00:36.677Z,100903.53
2022-10-01T07:03:09.087Z,100907.25
2022-10-01T07:05:37.736Z,100906.81
2022-10-01T07:08:05.087Z,100905.47
2022-10-01T07:10:34.313Z,100919.69
2022-10-01T07:13:18.379Z,100926.38
2022-10-01T07:15:46.361Z,100912.41
2022-10-01T07:18:13.860Z,100921.06
2022-10-01T07:20:41.489Z,100919.09
2022-10-01T07:23:11.994Z,100913.28
2022-10-01T07:25:40.763Z,100909.97
2022-10-01T07:28:16.290Z,100912.63
2022-10-01T07:31:01.409Z,100911.44
2022-10-01T07:33:29.331Z,100904.97
2022-10-01T07:36:00.549Z,100899.97
2022-10-01T07:38:27.794Z,100899.94
2022-10-01T07:40:57.244Z,100897.00
2022-10-01T07:43:24.509Z,100903.91
2022-10-01T07:45:55.109Z,100907.88
2022-10-01T07:48:22.642Z,100907.31
2022-10-01T07:50:53.082Z,100903.84
2022-10-01T07:53:20.510Z,100904.69
2022-10-01T07:55:49.083Z,100912.03
2022-10-01T07:58:16.545Z,100915.34
2022-10-01T08:00:43.800Z,100921.50
2022-10-01T08:03:13.777Z,100914.75
2022-10-01T08:05:43.224Z,100917.00
2022-10-01T08:08:10.541Z,100928.91
2022-10-01T08:10:38.559Z,100933.19
2022-10-01T08:13:14.834Z,100931.41
2022-10-01T08:15:46.632Z,100942.03
2022-10-01T08:18:14.326Z,100953.69
2022-10-01T08:20:42.146Z,100944.31
2022-10-01T08:23:11.975Z,100943.91
2022-10-01T08:25:40.510Z,100945.88
2022-10-01T08:28:09.757Z,100943.53
2022-10-01T08:30:42.199Z,100943.91
2022-10-01T08:33:12.478Z,100948.69
2022-10-01T08:35:41.161Z,100935.88
2022-10-01T08:38:09.798Z,100932.63
2022-10-01T08:40:44.963Z,100945.41
2022-10-01T08:43:37.124Z,100935.00
2022-10-01T08:46:06.713Z,100951.75
2022-10-01T08:48:59.127Z,100944.88
2022-10-01T08:51:42.243Z,100947.31
2022-10-01T08:54:37.544Z,100941.34
2022-10-01T08:57:16.236Z,100951.63
2022-10-01T08:59:52.217Z,100962.59
2022-10-01T09:02:26.780Z,100959.47
2022-10-01T09:05:01.992Z,100956.69
2022-10-01T09:07:46.064Z,100958.03
2022-10-01T09:10:35.851Z,100960.09
2022-10-01T09:13:18.678Z,100948.88
2022-10-01T09:16:28.197Z,100957.28
2022-10-01T09:19:15.669Z,100961.84
2022-10-01T09:21:46.809Z,100962.25
2022-10-01T09:24:38.393Z,100949.91
2022-10-01T09:27:13.626Z,100953.69
2022-10-01T09:29:45.874Z,100953.00
2022-10-01T09:32:19.395Z,100946.22
2022-10-01T09:34:47.352Z,100949.25
2022-10-01T09:37:27.997Z,100943.03
2022-10-01T09:40:17.136Z,100940.88
2022-10-01T09:42:45.264Z,100943.84
2022-10-01T09:45:14.788Z,100947.84
2022-10-01T09:47:45.442Z,100941.28
2022-10-01T09:50:17.542Z,100940.13
2022-10-01T09:52:50.436Z,100942.91
2022-10-01T09:55:32.735Z,100933.25
2022-10-01T09:58:07.390Z,100938.34
2022-10-01T10:00:37.854Z,100944.09
2022-10-01T10:03:05.329Z,100936.78
2022-10-01T10:05:49.346Z,100927.72
2022-10-01T10:08:23.501Z,100924.81
2022-10-01T10:10:57.317Z,100918.38
2022-10-01T10:13:32.104Z,100922.97
2022-10-01T10:16:02.706Z,100911.75
2022-10-01T10:18:36.894Z,100911.75
2022-10-01T10:21:20.702Z,100901.59
2022-10-01T10:23:59.551Z,100899.16
2022-10-01T10:26:33.346Z,100899.84
2022-10-01T10:29:02.975Z,100892.00
2022-10-01T10:31:41.009Z,100895.06
2022-10-01T10:34:19.199Z,100885.38
2022-10-01T10:36:47.179Z,100890.25
2022-10-01T10:39:25.795Z,100892.84
2022-10-01T10:41:53.954Z,100882.53
2022-10-01T10:44:25.152Z,100877.50
2022-10-01T10:46:54.137Z,100885.13
2022-10-01T10:49:33.367Z,100878.09
2022-10-01T10:52:01.953Z,100877.78
2022-10-01T10:54:37.564Z,100889.69
2022-10-01T10:57:21.310Z,100891.34
2022-10-01T11:00:11.424Z,100884.41
2022-10-01T11:02:48.163Z,100879.09
2022-10-01T11:05:24.837Z,100877.00
2022-10-01T11:07:59.715Z,100886.78
2022-10-01T11:10:47.986Z,100888.78
2022-10-01T11:13:32.800Z,100888.81
2022-10-01T11:16:22.346Z,100879.28
2022-10-01T11:19:16.860Z,100866.66
2022-10-01T11:22:02.599Z,100866.66
2022-10-01T11:24:45.956Z,100852.59
2022-10-01T11:27:16.337Z,100870.81
2022-10-01T11:29:53.020Z,100869.75
2022-10-01T11:32:41.456Z,100870.97
2022-10-01T11:35:22.728Z,100877.34
2022-10-01T11:38:22.476Z,100893.47
2022-10-01T11:40:56.463Z,100888.59
2022-10-01T11:43:54.410Z,100889.19
2022-10-01T11:46:34.127Z,100883.19
2022-10-01T11:49:15.478Z,100888.03
2022-10-01T11:51:50.921Z,100882.09
2022-10-01T11:54:25.386Z,100876.97
2022-10-01T11:57:15.679Z,100867.84
2022-10-01T11:59:55.936Z,100869.84
2022-10-01T12:02:35.550Z,100861.91
2022-10-01T12:05:17.211Z,100865.72
2022-10-01T12:07:58.992Z,100859.72
2022-10-01T12:10:38.889Z,100864.88
2022-10-01T12:13:29.103Z,100858.50
2022-10-01T12:16:06.016Z,100840.97
2022-10-01T12:18:52.338Z,100837.53
2022-10-01T12:21:27.694Z,100836.44
2022-10-01T12:24:01.447Z,100832.97
2022-10-01T12:27:06.945Z,100834.97
2022-10-01T12:29:54.024Z,100825.88
2022-10-01T12:32:42.987Z,100829.69
2022-10-01T12:35:16.347Z,100825.78
2022-10-01T12:37:58.788Z,100804.09
2022-10-01T12:40:45.993Z,100813.88
2022-10-01T12:43:16.001Z,100823.69
2022-10-01T12:46:04.948Z,100826.84
2022-10-01T12:48:48.376Z,100821.41
2022-10-01T12:51:37.011Z,100817.53
2022-10-01T12:54:12.708Z,100804.13
2022-10-01T12:56:50.070Z,100808.09
2022-10-01T12:59:40.917Z,100807.69
2022-10-01T13:02:45.709Z,100802.91
2022-10-01T13:05:12.967Z,100804.91
2022-10-01T13:07:42.253Z,100803.31
2022-10-01T13:10:39.569Z,100789.47
2022-10-01T13:13:18.167Z,100777.13
2022-10-01T13:15:49.508Z,100777.88
2022-10-01T13:18:44.490Z,100775.16
2022-10-01T13:21:30.340Z,100779.97
2022-10-01T13:24:15.465Z,100773.22
2022-10-01T13:26:56.015Z,100773.19
2022-10-01T13:29:32.242Z,100781.84
2022-10-01T13:32:04.595Z,100759.72
2022-10-01T13:34:41.102Z,100766.91
2022-10-01T13:37:19.309Z,100755.78
2022-10-01T13:39:47.925Z,100763.59
2022-10-01T13:42:24.173Z,100762.06
2022-10-01T13:44:58.067Z,100772.38
2022-10-01T13:47:25.912Z,100769.19
2022-10-01T13:50:00.298Z,100750.88
2022-10-01T13:52:28.087Z,100756.94
2022-10-01T13:54:56.924Z,100757.34
2022-10-01T13:57:36.241Z,100753.31
2022-10-01T14:00:22.873Z,100749.31
2022-10-01T14:03:25.561Z,100755.69
2022-10-01T14:05:57.883Z,100750.03
2022-10-01T14:08:51.356Z,100757.16
2022-10-01T14:11:45.664Z,100750.09
2022-10-01T14:14:41.580Z,100752.03
2022-10-01T14:17:13.015Z,100741.44
2022-10-01T14:19:56.792Z,100741.81
2022-10-01T14:23:10.901Z,100741.16
2022-10-01T14:26:01.856Z,100731.28
2022-10-01T14:29:08.353Z,100729.66
2022-10-01T14:31:35.659Z,100720.97
2022-10-01T14:34:14.589Z,100726.50
2022-10-01T14:36:48.030Z,100722.22
2022-10-01T14:39:18.357Z,100727.72
2022-10-01T14:41:48.269Z,100724.97
2022-10-01T14:44:22.013Z,100707.97
2022-10-01T14:46:51.391Z,100721.44
2022-10-01T14:49:22.209Z,100709.97
2022-10-01T14:52:02.449Z,100714.31
2022-10-01T14:54:37.402Z,100702.06
2022-10-01T14:57:11.720Z,100704.03
2022-10-01T14:59:40.754Z,100706.41
2022-10-01T15:02:20.707Z,100702.06
2022-10-01T15:04:50.663Z,100717.47
2022-10-01T15:07:19.284Z,100713.53
2022-10-01T15:09:47.629Z,100708.34
2022-10-01T15:12:17.183Z,100707.59
2022-10-01T15:14:49.936Z,100712.31
2022-10-01T15:17:27.267Z,100710.72
2022-10-01T15:19:56.731Z,100703.59
2022-10-01T15:22:29.434Z,100709.94
2022-10-01T15:25:01.597Z,100707.94
2022-10-01T15:27:29.042Z,100698.84
2022-10-01T15:29:58.749Z,100692.53
2022-10-01T15:32:28.142Z,100699.63
2022-10-01T15:35:01.599Z,100701.97
2022-10-01T15:37:34.898Z,100703.19
2022-10-01T15:40:05.910Z,100706.75
2022-10-01T15:42:35.027Z,100711.53
2022-10-01T15:45:25.908Z,100702.03
2022-10-01T15:47:56.928Z,100697.28
2022-10-01T15:50:32.677Z,100714.69
2022-10-01T15:53:10.234Z,100714.28
2022-10-01T15:55:49.523Z,100711.13
2022-10-01T15:58:22.802Z,100710.75
2022-10-01T16:00:53.108Z,100702.03
2022-10-01T16:03:43.307Z,100710.72
2022-10-01T16:06:23.612Z,100703.16
2022-10-01T16:09:06.274Z,100712.28
2022-10-01T16:12:11.715Z,100703.16
2022-10-01T16:14:42.693Z,100709.09
2022-10-01T16:17:19.199Z,100710.66
2022-10-01T16:19:56.707Z,100706.69
2022-10-01T16:22:25.591Z,100714.16
2022-10-01T16:25:01.462Z,100704.63
2022-10-01T16:27:35.570Z,100696.31
2022-10-01T16:30:11.014Z,100708.19
2022-10-01T16:32:38.600Z,100713.63
2022-10-01T16:35:25.153Z,100713.69
2022-10-01T16:37:55.147Z,100728.94
2022-10-01T16:40:28.364Z,100733.25
2022-10-01T16:42:57.342Z,100728.34
2022-10-01T16:45:27.724Z,100732.44
2022-10-01T16:47:56.777Z,100715.69
2022-10-01T16:50:25.097Z,100718.00
2022-10-01T16:52:54.378Z,100719.94
2022-10-01T16:55:27.102Z,100722.22
2022-10-01T16:57:57.174Z,100732.81
2022-10-01T17:00:26.302Z,100730.50
2022-10-01T17:02:57.227Z,100745.34
2022-10-01T17:05:30.478Z,100748.03
2022-10-01T17:08:00.986Z,100751.53
2022-10-01T17:10:33.668Z,100750.72
2022-10-01T17:13:02.044Z,100739.63
2022-10-01T17:15:29.738Z,100729.22
2022-10-01T17:17:58.487Z,100743.53
2022-10-01T17:20:28.774Z,100757.56
2022-10-01T17:22:57.859Z,100759.59
2022-10-01T17:25:31.021Z,100757.78
2022-10-01T17:27:59.789Z,100763.66
2022-10-01T17:30:29.951Z,100774.09
2022-10-01T17:32:59.928Z,100781.50
2022-10-01T17:35:29.416Z,100784.59
2022-10-01T17:37:56.837Z,100785.13
2022-10-01T17:40:24.712Z,100790.88
2022-10-01T17:42:52.053Z,100788.38
2022-10-01T17:45:22.268Z,100797.06
2022-10-01T17:47:51.261Z,100792.63
2022-10-01T17:50:18.698Z,100802.44
2022-10-01T17:52:49.361Z,100796.03
2022-10-01T17:55:19.822Z,100797.72
2022-10-01T17:57:47.283Z,100796.09
2022-10-01T18:00:14.736Z,100800.81
2022-10-01T18:02:43.268Z,100804.25
2022-10-01T18:05:14.507Z,100793.16
2022-10-01T18:07:42.917Z,100800.72
2022-10-01T18:10:13.536Z,100819.69
2022-10-01T18:12:41.034Z,100809.38
2022-10-01T18:15:13.706Z,100823.53
2022-10-01T18:17:43.573Z,100840.59
2022-10-01T18:20:20.149Z,100847.16
2022-10-01T18:22:47.808Z,100839.59
2022-10-01T18:25:16.191Z,100842.44
2022-10-01T18:27:43.769Z,100845.94
2022-10-01T18:30:11.269Z,100849.09
2022-10-01T18:32:56.959Z,100847.38
2022-10-01T18:35:33.201Z,100860.28
2022-10-01T18:38:20.703Z,100859.44
2022-10-01T18:41:04.606Z,100862.50
2022-10-01T18:43:36.387Z,100864.91
2022-10-01T18:46:06.547Z,100853.94
2022-10-01T18:48:49.074Z,100851.63
2022-10-01T18:51:28.253Z,100840.59
2022-10-01T18:54:02.282Z,100846.03
2022-10-01T18:56:33.534Z,100858.72
2022-10-01T18:59:22.192Z,100856.59
2022-10-01T19:02:05.370Z,100859.66
2022-10-01T19:04:56.117Z,100860.81
2022-10-01T19:07:29.395Z,100866.44
2022-10-01T19:10:26.557Z,100864.53
2022-10-01T19:13:05.766Z,100865.09
2022-10-01T19:16:00.463Z,100869.25
2022-10-01T19:18:46.244Z,100867.66
2022-10-01T19:21:18.117Z,100868.06
2022-10-01T19:24:22.941Z,100872.66
2022-10-01T19:27:04.553Z,100866.56
2022-10-01T19:30:06.915Z,100871.59
2022-10-01T19:32:56.444Z,100868.47
2022-10-01T19:35:41.823Z,100872.81
2022-10-01T19:38:26.537Z,100880.06
2022-10-01T19:41:01.397Z,100886.16
2022-10-01T19:43:42.759Z,100899.53
2022-10-01T19:46:26.533Z,100891.94
2022-10-01T19:49:04.275Z,100887.63
2022-10-01T19:51:57.151Z,100899.25
2022-10-01T19:54:33.659Z,100886.97
2022-10-01T19:57:21.986Z,100889.31
2022-10-01T19:59:51.266Z,100896.69
2022-10-01T20:02:45.823Z,100889.44
2022-10-01T20:05:20.354Z,100896.41
2022-10-01T20:08:05.513Z,100899.88
2022-10-01T20:10:59.331Z,100905.50
2022-10-01T20:13:38.747Z,100905.00
2022-10-01T20:16:20.214Z,100910.41
2022-10-01T20:19:08.521Z,100904.84
2022-10-01T20:21:41.420Z,100907.91
2022-10-01T20:24:20.986Z,100914.16
2022-10-01T20:27:03.808Z,100905.94
2022-10-01T20:30:00.363Z,100922.41
2022-10-01T20:32:39.558Z,100920.13
2022-10-01T20:35:32.573Z,100926.16
2022-10-01T20:38:20.151Z,100937.00
2022-10-01T20:40:54.011Z,100922.97
2022-10-01T20:43:33.172Z,100930.84
2022-10-01T20:46:09.729Z,100927.25
2022-10-01T20:48:41.660Z,100933.03
2022-10-01T20:51:17.208Z,100930.66
2022-10-01T20:53:54.921Z,100932.31
2022-10-01T20:56:28.625Z,100932.84
2022-10-01T20:59:07.727Z,100928.28
2022-10-01T21:01:40.144Z,100928.84
2022-10-01T21:04:16.660Z,100937.44
2022-10-01T21:06:47.547Z,100936.81
2022-10-01T21:09:25.662Z,100933.63
2022-10-01T21:12:02.957Z,100937.88
2022-10-01T21:14:38.419Z,100942.94
2022-10-01T21:17:27.197Z,100944.72
2022-10-01T21:20:03.405Z,100952.88
2022-10-01T21:22:49.584Z,100965.75
2022-10-01T21:25:30.710Z,100972.47
2022-10-01T21:28:26.855Z,100974.16
2022-10-01T21:31:20.677Z,100975.94
2022-10-01T21:34:02.066Z,100979.84
2022-10-01T21:36:47.285Z,100978.22
2022-10-01T21:39:38.825Z,100975.84
2022-10-01T21:42:15.455Z,100969.19
2022-10-01T21:44:48.879Z,100979.13
2022-10-01T21:47:41.211Z,100980.66
2022-10-01T21:50:35.369Z,100996.91
2022-10-01T21:53:29.031Z,100984.34
2022-10-01T21:56:08.343Z,100985.94
2022-10-01T21:58:53.621Z,100993.03
2022-10-01T22:01:29.831Z,100992.75
2022-10-01T22:04:23.399Z,100997.19
2022-10-01T22:07:03.626Z,101004.00
2022-10-01T22:10:07.986Z,101002.78
2022-10-01T22:12:40.380Z,100997.97
2022-10-01T22:15:21.177Z,100990.63
2022-10-01T22:17:51.336Z,100994.94
2022-10-01T22:20:22.499Z,100996.88
2022-10-01T22:22:54.967Z,100996.53
2022-10-01T22:25:22.335Z,101006.41
2022-10-01T22:27:55.514Z,101003.03
2022-10-01T22:30:27.343Z,100997.81
2022-10-01T22:33:05.438Z,100998.53
2022-10-01T22:35:39.634Z,101005.66
2022-10-01T22:38:18.780Z,101004.97
2022-10-01T22:40:52.875Z,100989.19
2022-10-01T22:43:20.383Z,101002.66
2022-10-01T22:46:21.314Z,100997.94
2022-10-01T22:49:01.005Z,100998.22
2022-10-01T22:51:45.545Z,101001.56
2022-10-01T22:54:15.883Z,101011.66
2022-10-01T22:57:13.099Z,101009.06
2022-10-01T23:00:01.635Z,101011.28
2022-10-01T23:02:36.497Z,101017.41
2022-10-01T23:05:40.638Z,101020.53
2022-10-01T23:08:28.399Z,101036.06
2022-10-01T23:11:02.221Z,101043.56
2022-10-01T23:13:56.729Z,101041.31
2022-10-01T23:16:36.666Z,101059.16
2022-10-01T23:19:06.995Z,101058.97
2022-10-01T23:21:55.351Z,101065.91
2022-10-01T23:24:41.529Z,101075.78
2022-10-01T23:27:42.203Z,101079.91
2022-10-01T23:30:15.705Z,101083.00
2022-10-01T23:32:58.336Z,101082.56
2022-10-01T23:35:42.673Z,101080.94
2022-10-01T23:38:39.073Z,101086.88
2022-10-01T23:41:18.878Z,101094.00
2022-10-01T23:43:49.926Z,101084.94
2022-10-01T23:46:34.286Z,101097.97
2022-10-01T23:49:18.041Z,101101.28
2022-10-01T23:51:57.345Z,101092.13
2022-10-01T23:54:36.555Z,101096.94
2022-10-01T23:57:28.185Z,101097.03
